Time;durP1;ratioP1;P1;durP2;ratioP2;P2;SDS_P1;SDS_P2;PMS_P1;PMS_P2;Temp;Humidity;BMP_temperature;BMP_pressure;BME280_temperature;BME280_humidity;BME280_pressure;Samples;Min_cycle;Max_cycle;Signal;HPM_P1;HPM_P2
2022/05/11 00:00:31;;;;;;;3.80;3.50;;;18.60;99.90;;;;;;5050686;28;20430;-82
2022/05/11 00:02:57;;;;;;;4.80;4.00;;;18.60;99.90;;;;;;5034537;28;20503;-83
2022/05/11 00:05:23;;;;;;;4.50;4.20;;;18.60;99.90;;;;;;5068622;28;20686;-81
2022/05/11 00:07:49;;;;;;;4.50;4.20;;;18.70;99.90;;;;;;5068546;28;20218;-82
2022/05/11 00:10:15;;;;;;;5.53;4.47;;;18.80;99.90;;;;;;5034082;28;20986;-82
2022/05/11 00:12:42;;;;;;;5.33;4.20;;;18.70;99.90;;;;;;5050830;28;20175;-83
2022/05/11 00:15:10;;;;;;;4.57;4.17;;;18.60;99.90;;;;;;5034256;28;20439;-82
2022/05/11 00:17:36;;;;;;;7.17;4.23;;;18.60;99.90;;;;;;5034504;28;20433;-81
2022/05/11 00:20:06;;;;;;;4.50;4.10;;;18.70;99.90;;;;;;5034096;28;20451;-82
2022/05/11 00:22:33;;;;;;;6.00;4.60;;;18.70;99.90;;;;;;5069398;28;20186;-82
2022/05/11 00:25:00;;;;;;;5.77;4.50;;;18.70;99.90;;;;;;5069873;28;20444;-82
2022/05/11 00:27:26;;;;;;;6.27;4.47;;;18.70;99.90;;;;;;5069289;28;20506;-82
2022/05/11 00:29:52;;;;;;;4.70;4.30;;;18.60;99.90;;;;;;5051473;28;20421;-81
2022/05/11 00:32:18;;;;;;;8.27;5.00;;;18.40;99.90;;;;;;5070615;28;20959;-80
2022/05/11 00:34:44;;;;;;;4.73;4.33;;;18.20;99.90;;;;;;5035173;28;20272;-82
2022/05/11 00:37:10;;;;;;;5.13;4.70;;;18.10;99.90;;;;;;5051806;28;21003;-82
2022/05/11 00:39:36;;;;;;;8.63;4.50;;;18.10;99.90;;;;;;5050604;28;20438;-82
2022/05/11 00:42:04;;;;;;;5.80;5.30;;;18.00;99.90;;;;;;5034082;28;20431;-82
2022/05/11 00:44:30;;;;;;;5.17;4.70;;;17.80;99.90;;;;;;5050666;28;20267;-82
2022/05/11 00:47:20;;;;;;;7.10;4.53;;;17.60;99.90;;;;;;5050181;28;20568;-82
2022/05/11 00:50:00;;;;;;;4.37;3.97;;;17.50;99.90;;;;;;5068671;28;20246;-82
2022/05/11 00:52:34;;;;;;;5.13;4.67;;;17.50;99.90;;;;;;5069049;28;20474;-81
2022/05/11 00:55:03;;;;;;;4.70;4.30;;;17.40;99.90;;;;;;5068674;28;20898;-82
2022/05/11 00:57:55;;;;;;;6.90;5.30;;;17.20;99.90;;;;;;5069325;28;20472;-81
2022/05/11 01:00:22;;;;;;;6.90;4.53;;;17.00;99.90;;;;;;5068388;28;20468;-82
2022/05/11 01:02:54;;;;;;;5.00;4.60;;;16.90;99.90;;;;;;5049954;28;20423;-82
2022/05/11 01:05:20;;;;;;;6.10;4.90;;;16.80;99.90;;;;;;5050016;28;20478;-82
2022/05/11 01:07:46;;;;;;;5.90;5.40;;;16.90;99.90;;;;;;5068353;28;20462;-82
2022/05/11 01:10:12;;;;;;;6.83;4.60;;;16.80;99.90;;;;;;5068233;28;20197;-82
2022/05/11 01:12:42;;;;;;;8.33;4.60;;;16.70;99.90;;;;;;5067917;28;20427;-82
2022/05/11 01:15:11;;;;;;;5.03;4.53;;;16.60;99.90;;;;;;5050734;28;20220;-80
2022/05/11 01:17:38;;;;;;;8.60;4.43;;;16.60;99.90;;;;;;5050364;28;20427;-82
2022/05/11 01:20:07;;;;;;;5.00;4.60;;;16.50;99.90;;;;;;5033634;28;20436;-82
2022/05/11 01:22:39;;;;;;;4.63;4.23;;;16.50;99.90;;;;;;5050172;28;20430;-81
2022/05/11 01:25:08;;;;;;;5.97;4.17;;;16.50;99.90;;;;;;5050512;28;20443;-81
2022/05/11 01:27:41;;;;;;;6.40;4.80;;;16.50;99.90;;;;;;5068710;28;20474;-81
2022/05/11 01:30:17;;;;;;;5.20;4.60;;;16.60;99.90;;;;;;5068447;28;20436;-81
2022/05/11 01:32:48;;;;;;;4.50;4.10;;;16.50;99.90;;;;;;5051194;28;20426;-81
2022/05/11 01:35:31;;;;;;;7.53;4.50;;;16.50;99.90;;;;;;5068431;28;20436;-81
2022/05/11 01:38:20;;;;;;;7.60;4.47;;;16.50;99.90;;;;;;5050841;28;20526;-80
2022/05/11 01:40:46;;;;;;;7.00;4.70;;;16.40;99.90;;;;;;5054897;28;20420;-79
2022/05/11 01:43:37;;;;;;;4.60;4.20;;;16.40;99.90;;;;;;5073745;28;20931;-81
2022/05/11 01:46:03;;;;;;;7.93;5.20;;;16.40;99.90;;;;;;5055183;28;20898;-80
2022/05/11 01:48:29;;;;;;;5.00;4.50;;;16.30;99.90;;;;;;5038209;28;20441;-82
2022/05/11 01:50:56;;;;;;;30.57;20.97;;;16.20;99.90;;;;;;5037677;28;20434;-81
2022/05/11 01:53:23;;;;;;;9.33;6.50;;;16.30;99.90;;;;;;5072013;28;20264;-81
2022/05/11 01:55:49;;;;;;;7.50;5.63;;;16.20;99.90;;;;;;5037386;28;20521;-81
2022/05/11 01:58:16;;;;;;;6.80;5.60;;;16.20;99.90;;;;;;5037065;28;20505;-81
2022/05/11 02:00:44;;;;;;;5.50;5.07;;;16.30;99.90;;;;;;5053781;28;20413;-82
2022/05/11 02:03:11;;;;;;;5.97;4.00;;;16.30;99.90;;;;;;5053799;28;20517;-81
2022/05/11 02:08:21;;;;;;;5.70;5.20;;;16.40;99.90;;;;;;5071310;28;20468;-81
2022/05/11 02:10:47;;;;;;;5.87;4.13;;;16.50;99.90;;;;;;5020315;28;20428;-82
2022/05/11 02:13:14;;;;;;;6.60;4.60;;;16.60;99.90;;;;;;5052777;28;20941;-81
2022/05/11 02:15:40;;;;;;;5.77;5.07;;;16.70;99.90;;;;;;5070368;28;20215;-81
2022/05/11 02:18:07;;;;;;;4.50;3.97;;;16.80;99.90;;;;;;5071114;28;20426;-81
2022/05/11 02:20:33;;;;;;;4.50;4.20;;;16.90;99.90;;;;;;5053066;28;20420;-81
2022/05/11 02:22:59;;;;;;;4.73;3.90;;;17.00;99.90;;;;;;5052889;28;20439;-82
2022/05/11 02:25:25;;;;;;;4.23;3.90;;;17.10;99.90;;;;;;5053231;28;21052;-82
2022/05/11 02:27:52;;;;;;;6.00;4.53;;;17.30;99.90;;;;;;5071420;28;20552;-81
2022/05/11 02:30:22;;;;;;;5.10;4.47;;;17.30;99.90;;;;;;5071314;28;20417;-81
2022/05/11 02:32:48;;;;;;;4.80;4.30;;;17.40;99.90;;;;;;5052718;28;20450;-82
2022/05/11 02:35:16;;;;;;;4.57;4.17;;;17.40;99.90;;;;;;5070809;28;20430;-82
2022/05/11 02:38:09;;;;;;;4.63;4.23;;;17.40;99.90;;;;;;5052979;28;20417;-81
2022/05/11 02:40:38;;;;;;;4.30;3.90;;;17.50;99.90;;;;;;5035890;28;20440;-80
2022/05/11 02:43:04;;;;;;;4.10;3.70;;;17.50;99.90;;;;;;5053012;28;20451;-82
2022/05/11 02:45:33;;;;;;;4.00;3.70;;;17.60;99.90;;;;;;5070550;28;20451;-82
2022/05/11 02:48:02;;;;;;;3.83;3.50;;;17.60;99.90;;;;;;5052278;28;20493;-82
2022/05/11 02:50:55;;;;;;;5.00;4.13;;;17.60;99.90;;;;;;5052107;28;20441;-82
2022/05/11 02:53:23;;;;;;;6.03;3.53;;;17.60;99.90;;;;;;5067392;28;20463;-81
2022/05/11 02:55:51;;;;;;;8.13;3.73;;;17.70;99.90;;;;;;5052812;28;20471;-81
2022/05/11 02:58:19;;;;;;;4.30;4.00;;;17.90;99.90;;;;;;5036373;28;20919;-80
2022/05/11 03:00:47;;;;;;;4.73;3.97;;;17.90;99.90;;;;;;5070386;28;20504;-81
2022/05/11 03:03:15;;;;;;;4.63;3.70;;;17.90;99.90;;;;;;5052191;28;20441;-81
2022/05/11 03:05:42;;;;;;;4.67;4.27;;;17.90;99.90;;;;;;5070330;28;20445;-82
2022/05/11 03:08:08;;;;;;;5.23;4.27;;;17.90;99.90;;;;;;5070286;28;20555;-81
2022/05/11 03:10:35;;;;;;;5.37;3.60;;;17.90;99.90;;;;;;5035690;28;20453;-82
2022/05/11 03:13:02;;;;;;;4.20;3.90;;;17.90;99.90;;;;;;5035889;28;20424;-82
2022/05/11 03:15:29;;;;;;;4.60;3.77;;;17.90;99.90;;;;;;5035862;28;20475;-82
2022/05/11 03:17:55;;;;;;;4.47;3.43;;;17.90;99.90;;;;;;5069906;28;20431;-82
2022/05/11 03:20:23;;;;;;;4.50;4.10;;;17.90;99.90;;;;;;5035469;28;20490;-82
2022/05/11 03:22:51;;;;;;;5.13;3.50;;;17.80;99.90;;;;;;5035672;28;20189;-82
2022/05/11 03:25:18;;;;;;;4.20;3.90;;;17.80;99.90;;;;;;5065555;28;20788;-82
2022/05/11 03:27:44;;;;;;;4.43;3.50;;;17.80;99.90;;;;;;5069914;28;20460;-82
2022/05/11 03:30:11;;;;;;;5.67;3.83;;;17.80;99.90;;;;;;5052062;28;20414;-83
2022/05/11 03:35:25;;;;;;;5.60;3.90;;;17.80;99.90;;;;;;5041213;28;20440;-83
2022/05/11 03:37:51;;;;;;;4.43;4.03;;;17.70;99.90;;;;;;5051665;28;20431;-83
2022/05/11 03:40:17;;;;;;;3.90;3.60;;;17.70;99.90;;;;;;5051959;28;20692;-81
2022/05/11 03:42:42;;;;;;;4.33;3.93;;;17.70;99.90;;;;;;5019340;28;20236;-81
2022/05/11 03:45:22;;;;;;;3.20;3.00;;;17.70;99.90;;;;;;5034937;28;20497;-82
2022/05/11 03:47:48;;;;;;;3.80;3.50;;;17.70;99.90;;;;;;5051234;28;20214;-82
2022/05/11 03:50:15;;;;;;;3.90;3.60;;;17.60;99.90;;;;;;5051144;28;20440;-83
2022/05/11 03:52:41;;;;;;;4.73;3.93;;;17.60;99.90;;;;;;5035056;28;20431;-82
2022/05/11 03:55:10;;;;;;;9.43;3.60;;;17.60;99.90;;;;;;5050865;28;20506;-82
2022/05/11 03:57:37;;;;;;;4.03;3.37;;;17.60;99.90;;;;;;5069466;28;20222;-81
2022/05/11 04:00:08;;;;;;;4.50;3.63;;;17.60;99.90;;;;;;5034909;28;21007;-82
2022/05/11 04:02:35;;;;;;;3.97;3.57;;;17.70;99.90;;;;;;5068778;28;20788;-82
2022/05/11 04:05:01;;;;;;;3.93;3.63;;;17.60;99.90;;;;;;5018109;28;21012;-82
2022/05/11 04:07:26;;;;;;;5.23;3.87;;;17.70;99.90;;;;;;5034583;28;20502;-82
2022/05/11 04:09:52;;;;;;;5.27;4.00;;;17.70;99.90;;;;;;5051130;28;20189;-82
2022/05/11 04:12:18;;;;;;;4.23;3.93;;;17.60;99.90;;;;;;5034479;28;20591;-82
2022/05/11 04:14:43;;;;;;;4.37;3.53;;;17.50;99.90;;;;;;5050964;28;20254;-83
2022/05/11 04:17:09;;;;;;;4.53;3.40;;;17.50;99.90;;;;;;5017991;28;20198;-84
2022/05/11 04:19:37;;;;;;;3.80;3.50;;;17.60;99.90;;;;;;5034411;28;20275;-83
2022/05/11 04:22:03;;;;;;;4.20;3.53;;;17.60;99.90;;;;;;5050879;28;20929;-83
2022/05/11 04:24:28;;;;;;;6.13;4.30;;;17.80;99.90;;;;;;5050596;28;20417;-84
2022/05/11 04:26:54;;;;;;;5.70;4.17;;;17.90;99.90;;;;;;5050442;28;20713;-83
2022/05/11 04:29:20;;;;;;;4.93;4.53;;;17.90;99.90;;;;;;5050791;28;20196;-85
2022/05/11 04:31:51;;;;;;;6.57;4.93;;;17.80;99.90;;;;;;5050609;28;20181;-84
2022/05/11 04:34:17;;;;;;;3.83;3.53;;;17.60;99.90;;;;;;5034683;28;20425;-83
2022/05/11 04:36:42;;;;;;;6.20;4.80;;;17.60;99.90;;;;;;5050370;28;20522;-83
2022/05/11 04:39:08;;;;;;;7.60;4.27;;;17.50;99.90;;;;;;5049616;28;20187;-83
2022/05/11 04:41:34;;;;;;;4.10;3.70;;;17.60;99.90;;;;;;5049811;28;20196;-82
2022/05/11 04:44:00;;;;;;;7.63;3.70;;;17.50;99.90;;;;;;5033060;28;20382;-83
2022/05/11 04:46:25;;;;;;;3.93;3.63;;;17.70;99.90;;;;;;5049291;28;20205;-84
2022/05/11 04:49:16;;;;;;;4.20;3.90;;;17.70;99.90;;;;;;5032607;28;20942;-82
2022/05/11 04:51:37;;;;;;;4.47;4.07;;;17.80;99.90;;;;;;5052072;28;20749;-83
2022/05/11 04:54:04;;;;;;;4.80;3.80;;;17.70;99.90;;;;;;5049391;28;20417;-83
2022/05/11 04:56:32;;;;;;;9.00;4.07;;;17.70;99.90;;;;;;5048884;28;20237;-82
2022/05/11 04:58:58;;;;;;;8.07;3.43;;;17.70;99.90;;;;;;5032078;28;20413;-84
2022/05/11 05:01:25;;;;;;;4.10;3.73;;;17.90;99.90;;;;;;5048536;28;20537;-83
2022/05/11 05:03:51;;;;;;;4.70;3.90;;;18.00;99.90;;;;;;5048505;28;20459;-84
2022/05/11 05:06:17;;;;;;;4.87;3.83;;;17.90;99.90;;;;;;5066597;28;20472;-81
2022/05/11 05:08:43;;;;;;;5.80;4.10;;;18.00;99.90;;;;;;5015465;28;20617;-82
2022/05/11 05:11:09;;;;;;;4.03;3.80;;;18.00;99.90;;;;;;5066579;28;20431;-82
2022/05/11 05:13:35;;;;;;;5.03;3.63;;;18.10;99.90;;;;;;5048515;28;20945;-83
2022/05/11 05:16:01;;;;;;;5.03;3.63;;;18.10;99.90;;;;;;5019478;28;20474;-82
2022/05/11 05:18:28;;;;;;;9.20;4.27;;;18.20;99.90;;;;;;5053066;28;20654;-81
2022/05/11 05:20:55;;;;;;;4.30;3.90;;;18.40;99.90;;;;;;5053197;28;20657;-83
2022/05/11 05:23:22;;;;;;;4.20;3.77;;;18.50;99.90;;;;;;5035959;28;20892;-83
2022/05/11 05:25:48;;;;;;;3.57;3.27;;;18.60;99.90;;;;;;5036090;28;20528;-81
2022/05/11 05:31:06;;;;;;;4.07;3.67;;;18.80;99.90;;;;;;5041417;28;20558;-82
2022/05/11 05:33:38;;;;;;;5.80;4.13;;;18.90;99.90;;;;;;5052143;28;20517;-83
2022/05/11 05:36:05;;;;;;;4.60;4.20;;;19.00;99.90;;;;;;5052943;28;20443;-83
2022/05/11 05:38:31;;;;;;;4.27;3.97;;;19.10;99.90;;;;;;5052289;28;20423;-82
2022/05/11 05:40:56;;;;;;;4.73;4.27;;;19.30;99.90;;;;;;5052383;28;20423;-82
2022/05/11 05:43:23;;;;;;;4.13;3.83;;;19.40;99.90;;;;;;5052396;28;20649;-84
2022/05/11 05:45:54;;;;;;;6.67;3.60;;;19.60;99.90;;;;;;5052291;28;20210;-85
2022/05/11 05:48:21;;;;;;;4.13;3.73;;;19.70;99.90;;;;;;5052632;28;20471;-83
2022/05/11 05:50:47;;;;;;;7.20;3.53;;;19.70;99.90;;;;;;5071092;28;20437;-85
2022/05/11 05:53:19;;;;;;;6.70;4.47;;;19.80;99.90;;;;;;5053017;28;20930;-81
2022/05/11 05:55:48;;;;;;;8.53;4.30;;;19.90;99.90;;;;;;5052265;28;20448;-84
2022/05/11 05:58:14;;;;;;;3.70;3.40;;;19.90;99.90;;;;;;5040349;28;20425;-92
2022/05/11 06:00:40;;;;;;;5.00;4.60;;;19.90;99.90;;;;;;5057217;28;20429;-93
2022/05/11 06:03:06;;;;;;;4.00;3.70;;;20.10;99.90;;;;;;5056876;28;20426;-93
2022/05/11 06:05:32;;;;;;;4.30;3.37;;;20.30;99.20;;;;;;5041294;28;20468;-93
2022/05/11 06:07:57;;;;;;;8.93;3.47;;;20.40;99.80;;;;;;5025217;28;20219;-95
2022/05/11 06:10:25;;;;;;;4.30;3.90;;;20.60;99.60;;;;;;5039328;28;20185;-90
2022/05/11 06:12:52;;;;;;;5.33;3.43;;;20.60;98.60;;;;;;5057729;28;20187;-92
2022/05/11 06:15:18;;;;;;;3.90;3.60;;;20.80;98.40;;;;;;5040104;28;20444;-93
2022/05/11 06:17:44;;;;;;;4.30;3.90;;;20.70;98.00;;;;;;5056003;28;20454;-93
2022/05/11 06:20:10;;;;;;;4.33;3.53;;;20.80;98.70;;;;;;5055365;28;20451;-92
2022/05/11 06:22:37;;;;;;;4.07;3.37;;;20.70;98.10;;;;;;5077760;28;20182;-93
2022/05/11 06:25:04;;;;;;;4.03;3.47;;;20.90;98.10;;;;;;5054238;28;20441;-93
2022/05/11 06:27:29;;;;;;;4.20;3.70;;;21.00;97.50;;;;;;5055609;28;20534;-94
2022/05/11 06:30:03;;;;;;;3.80;2.97;;;21.00;97.60;;;;;;5040024;28;20417;-93
2022/05/11 06:32:28;;;;;;;6.00;3.47;;;21.00;97.70;;;;;;5041166;28;20187;-93
2022/05/11 06:34:55;;;;;;;4.77;3.60;;;21.10;97.60;;;;;;5036308;28;20464;-89
2022/05/11 06:37:22;;;;;;;3.37;3.10;;;21.20;96.20;;;;;;5038538;28;20210;-92
2022/05/11 06:39:48;;;;;;;3.13;2.93;;;21.30;96.80;;;;;;5054527;28;20444;-93
2022/05/11 06:42:15;;;;;;;3.60;3.30;;;21.20;95.80;;;;;;5039417;28;20429;-93
2022/05/11 06:44:41;;;;;;;5.37;3.17;;;21.30;94.90;;;;;;5041173;28;20484;-93
2022/05/11 06:47:07;;;;;;;3.13;2.90;;;21.50;95.80;;;;;;5021931;28;20492;-86
2022/05/11 06:49:33;;;;;;;4.10;3.33;;;21.60;95.60;;;;;;5055121;28;20422;-92
2022/05/11 06:51:59;;;;;;;4.03;3.03;;;21.80;94.20;;;;;;5055093;28;20446;-92
2022/05/11 07:00:06;;;;;;;3.63;3.33;;;22.20;93.60;;;;;;5020745;28;20516;-92
2022/05/11 07:02:34;;;;;;;4.57;3.40;;;22.30;94.00;;;;;;5057780;28;20499;-93
2022/05/11 07:05:00;;;;;;;3.53;3.03;;;22.50;94.20;;;;;;5023560;28;20464;-92
2022/05/11 07:07:27;;;;;;;4.07;3.13;;;22.60;93.60;;;;;;5040569;28;20457;-92
2022/05/11 07:09:53;;;;;;;3.20;2.90;;;22.70;93.50;;;;;;5041637;28;20425;-93
2022/05/11 07:12:20;;;;;;;5.93;3.23;;;22.50;92.80;;;;;;5021318;28;20441;-92
2022/05/11 07:14:47;;;;;;;3.27;2.97;;;22.60;93.30;;;;;;5039955;28;20192;-91
2022/05/11 07:17:27;;;;;;;3.50;3.20;;;22.60;94.60;;;;;;5038825;28;20433;-92
2022/05/11 07:19:55;;;;;;;3.70;3.40;;;22.80;94.20;;;;;;5054404;28;20448;-93
2022/05/11 07:22:21;;;;;;;3.73;3.10;;;22.90;93.40;;;;;;5058404;28;20418;-91
2022/05/11 07:24:47;;;;;;;3.40;3.10;;;23.00;92.80;;;;;;5021438;28;20540;-90
2022/05/11 07:27:12;;;;;;;3.63;3.10;;;23.10;92.70;;;;;;5021197;28;20208;-93
2022/05/11 07:29:38;;;;;;;2.43;2.30;;;22.90;92.70;;;;;;5037282;28;20179;-93
2022/05/11 07:32:06;;;;;;;3.40;3.10;;;22.90;92.30;;;;;;5023710;28;20214;-93
2022/05/11 07:34:33;;;;;;;3.27;2.97;;;23.00;93.40;;;;;;5038524;28;20687;-86
2022/05/11 07:36:59;;;;;;;3.43;3.03;;;23.10;93.60;;;;;;5018355;28;20429;-90
2022/05/11 07:39:25;;;;;;;3.80;3.23;;;23.00;91.40;;;;;;5035254;28;20483;-88
2022/05/11 07:41:50;;;;;;;4.70;3.20;;;23.10;92.10;;;;;;5036448;28;20184;-89
2022/05/11 07:44:17;;;;;;;3.00;2.80;;;23.20;92.70;;;;;;5035821;28;21000;-91
2022/05/11 07:46:44;;;;;;;3.80;3.27;;;23.20;92.10;;;;;;5034983;28;20205;-91
2022/05/11 07:49:10;;;;;;;2.97;2.77;;;23.30;92.10;;;;;;5036725;28;20968;-93
2022/05/11 07:51:37;;;;;;;4.33;3.10;;;23.30;93.10;;;;;;5035060;28;21025;-89
2022/05/11 07:54:04;;;;;;;3.37;3.07;;;23.30;92.10;;;;;;5068701;28;20441;-88
2022/05/11 08:01:58;;;;;;;4.97;3.73;;;23.20;91.80;;;;;;5053352;28;20506;-91
2022/05/11 08:04:25;;;;;;;3.63;3.17;;;23.40;92.70;;;;;;5068629;28;20522;-91
2022/05/11 08:06:51;;;;;;;4.53;3.53;;;23.60;92.50;;;;;;5033291;28;20850;-87
2022/05/11 08:09:16;;;;;;;5.33;3.73;;;23.70;92.20;;;;;;5050130;28;20703;-87
2022/05/11 08:11:42;;;;;;;3.80;3.00;;;23.60;91.30;;;;;;5050078;28;20186;-88
2022/05/11 08:14:08;;;;;;;4.97;3.27;;;23.60;90.50;;;;;;5033134;28;20183;-87
2022/05/11 08:16:34;;;;;;;2.93;2.60;;;23.70;91.10;;;;;;5049655;28;20209;-86
2022/05/11 08:19:01;;;;;;;3.20;3.00;;;23.90;91.90;;;;;;5050480;28;20606;-89
2022/05/11 08:21:26;;;;;;;8.63;3.17;;;23.90;88.90;;;;;;5033379;28;20433;-88
2022/05/11 08:23:52;;;;;;;10.73;3.07;;;24.00;90.20;;;;;;5033806;28;20432;-85
2022/05/11 08:26:18;;;;;;;9.03;3.17;;;24.10;90.00;;;;;;5033796;28;20224;-88
2022/05/11 08:28:44;;;;;;;4.90;3.10;;;24.20;90.70;;;;;;5050158;28;20253;-86
2022/05/11 08:33:56;;;;;;;3.23;2.90;;;24.40;90.90;;;;;;5054681;28;20197;-89
2022/05/11 08:36:24;;;;;;;4.17;2.87;;;24.50;90.30;;;;;;5050846;28;20448;-90
2022/05/11 08:38:55;;;;;;;5.00;3.10;;;24.60;90.10;;;;;;5068631;28;20198;-89
2022/05/11 08:41:39;;;;;;;7.50;3.00;;;24.90;90.50;;;;;;5050178;28;20469;-88
2022/05/11 08:44:06;;;;;;;3.33;2.50;;;25.10;88.00;;;;;;5050477;28;20568;-88
2022/05/11 08:46:59;;;;;;;4.63;3.60;;;25.10;84.20;;;;;;5049873;28;20937;-87
2022/05/11 08:49:43;;;;;;;5.93;3.40;;;25.30;85.90;;;;;;5067763;28;20416;-89
2022/05/11 08:52:43;;;;;;;4.00;3.00;;;25.40;81.80;;;;;;5050518;28;20467;-88
2022/05/11 08:55:33;;;;;;;2.77;2.57;;;25.40;78.00;;;;;;5068038;28;20428;-90
2022/05/11 08:58:11;;;;;;;5.63;3.10;;;25.20;80.60;;;;;;5049862;28;20436;-89
2022/05/11 09:00:41;;;;;;;4.93;3.00;;;25.20;78.00;;;;;;5050597;28;20428;-90
2022/05/11 09:03:32;;;;;;;3.93;2.50;;;25.60;79.60;;;;;;5050290;28;20509;-91
2022/05/11 09:06:26;;;;;;;7.50;2.73;;;26.10;79.70;;;;;;5037816;28;20448;-88
2022/05/11 09:08:57;;;;;;;3.00;2.80;;;26.10;75.70;;;;;;5067447;28;20440;-90
2022/05/11 09:11:26;;;;;;;8.57;2.83;;;26.60;76.80;;;;;;5070812;28;20401;-91
2022/05/11 09:13:52;;;;;;;3.00;2.80;;;26.90;73.20;;;;;;5034160;28;20611;-91
2022/05/11 09:16:24;;;;;;;7.33;3.07;;;27.20;74.50;;;;;;5051587;28;20551;-92
2022/05/11 09:18:50;;;;;;;3.43;2.33;;;27.30;72.70;;;;;;5052076;28;20187;-90
2022/05/11 09:21:33;;;;;;;3.00;2.77;;;27.40;71.60;;;;;;5033358;28;20429;-91
2022/05/11 09:24:32;;;;;;;3.70;3.30;;;27.20;67.90;;;;;;5050003;28;20679;-86
2022/05/11 09:27:11;;;;;;;2.97;2.67;;;27.80;72.30;;;;;;5045558;28;20468;-89
2022/05/11 09:29:39;;;;;;;5.70;3.30;;;28.10;69.30;;;;;;5049335;28;20425;-87
2022/05/11 09:32:23;;;;;;;3.50;3.10;;;28.10;69.70;;;;;;5050462;28;20433;-83
2022/05/11 09:34:48;;;;;;;4.70;3.30;;;28.60;69.70;;;;;;5050124;28;20493;-88
2022/05/11 09:37:28;;;;;;;4.87;3.10;;;28.80;69.40;;;;;;5032610;28;20428;-87
2022/05/11 09:40:09;;;;;;;3.13;2.93;;;28.80;67.70;;;;;;5048942;28;20187;-88
2022/05/11 09:42:52;;;;;;;3.60;3.00;;;29.00;67.60;;;;;;5052547;28;20440;-92
2022/05/11 09:45:40;;;;;;;3.30;3.00;;;29.10;65.50;;;;;;5052936;28;20527;-90
2022/05/11 09:48:16;;;;;;;4.13;2.90;;;29.40;65.10;;;;;;5051013;28;20548;-90
2022/05/11 09:50:43;;;;;;;5.00;2.83;;;29.70;64.30;;;;;;5053391;28;20994;-93
2022/05/11 09:53:30;;;;;;;3.60;2.77;;;29.80;64.70;;;;;;5054703;28;20456;-92
2022/05/11 09:55:56;;;;;;;3.30;3.10;;;29.90;63.80;;;;;;5058754;28;20445;-93
2022/05/11 09:58:32;;;;;;;3.50;3.00;;;30.10;67.60;;;;;;5035400;28;20960;-89
2022/05/11 10:01:21;;;;;;;3.00;2.70;;;30.30;62.10;;;;;;5039021;28;20183;-89
2022/05/11 10:03:57;;;;;;;8.00;3.10;;;30.20;62.50;;;;;;5041050;28;20438;-92
2022/05/11 10:06:25;;;;;;;3.80;3.10;;;29.60;63.70;;;;;;5075042;28;20440;-90
2022/05/11 10:08:52;;;;;;;5.30;2.83;;;29.80;64.80;;;;;;5056431;28;20494;-88
2022/05/11 10:11:44;;;;;;;3.20;3.00;;;30.20;63.70;;;;;;5039912;28;20438;-92
2022/05/11 10:23:03;;;;;;;3.47;3.27;;;30.80;60.10;;;;;;5059825;28;20467;-91
2022/05/11 10:25:39;;;;;;;3.30;3.00;;;30.90;60.20;;;;;;5056603;28;20451;-91
2022/05/11 10:28:27;;;;;;;3.80;3.50;;;31.20;60.40;;;;;;5040210;28;21064;-93
2022/05/11 10:31:07;;;;;;;6.60;3.40;;;31.40;59.00;;;;;;5073176;28;20418;-90
2022/05/11 10:33:39;;;;;;;4.17;3.60;;;31.50;58.40;;;;;;5055534;28;20474;-92
2022/05/11 10:36:26;;;;;;;3.33;3.03;;;31.40;59.70;;;;;;5057225;28;20460;-91
2022/05/11 10:39:09;;;;;;;4.63;3.37;;;31.70;60.40;;;;;;5054310;28;20456;-89
2022/05/11 10:41:48;;;;;;;7.43;3.37;;;31.50;56.10;;;;;;5071673;28;20419;-80
2022/05/11 10:44:40;;;;;;;3.30;3.10;;;31.00;55.40;;;;;;5052079;28;20429;-85
2022/05/11 10:47:24;;;;;;;3.40;3.20;;;30.90;56.80;;;;;;5071046;28;20457;-93
2022/05/11 10:50:00;;;;;;;6.87;2.97;;;30.70;56.10;;;;;;5072231;28;20420;-79
2022/05/11 10:52:35;;;;;;;3.47;3.23;;;31.20;56.70;;;;;;5071844;28;20428;-86
2022/05/11 10:55:25;;;;;;;4.33;3.37;;;31.20;55.60;;;;;;5053260;28;20586;-90
2022/05/11 10:58:18;;;;;;;4.57;3.10;;;31.60;58.20;;;;;;5052887;28;20433;-88
2022/05/11 11:00:47;;;;;;;3.60;3.30;;;31.20;55.20;;;;;;5052363;28;20816;-89
2022/05/11 11:03:34;;;;;;;3.70;3.50;;;31.20;53.40;;;;;;5070642;28;20963;-85
2022/05/11 11:09:08;;;;;;;3.83;3.40;;;31.60;57.90;;;;;;5070923;28;21010;-90
2022/05/11 11:11:45;;;;;;;3.60;3.30;;;31.20;54.10;;;;;;5051976;28;20460;-86
2022/05/11 11:14:12;;;;;;;7.53;3.60;;;31.20;56.20;;;;;;5052720;28;20425;-86
2022/05/11 11:16:41;;;;;;;4.20;3.80;;;31.40;56.20;;;;;;5052167;28;20587;-89
2022/05/11 11:19:09;;;;;;;5.53;3.17;;;31.20;54.00;;;;;;5036316;28;20760;-91
2022/05/11 11:21:40;;;;;;;3.63;3.33;;;31.20;53.60;;;;;;5052949;28;20440;-88
2022/05/11 11:24:24;;;;;;;3.10;2.90;;;31.60;54.80;;;;;;5036310;28;20947;-84
2022/05/11 11:26:59;;;;;;;3.17;2.97;;;31.10;54.20;;;;;;5053922;28;20480;-85
2022/05/11 11:29:35;;;;;;;5.70;3.10;;;31.40;55.30;;;;;;5053658;28;20432;-92
2022/05/11 11:32:20;;;;;;;3.60;3.40;;;31.60;57.40;;;;;;5056228;28;20520;-90
2022/05/11 11:35:21;;;;;;;4.10;3.70;;;31.20;55.40;;;;;;5053475;28;20457;-90
2022/05/11 11:37:59;;;;;;;3.93;3.63;;;30.70;54.20;;;;;;5052523;28;21107;-89
2022/05/11 11:40:27;;;;;;;5.00;3.70;;;31.10;56.50;;;;;;5052011;28;20979;-91
2022/05/11 11:42:54;;;;;;;3.80;3.50;;;30.80;55.00;;;;;;5035636;28;20429;-84
2022/05/11 11:45:29;;;;;;;4.20;3.70;;;30.60;55.10;;;;;;5054886;28;20829;-91
2022/05/11 11:48:03;;;;;;;3.43;3.17;;;30.90;57.30;;;;;;5051940;28;20468;-82
2022/05/11 11:50:59;;;;;;;4.60;3.60;;;31.10;56.00;;;;;;5052030;28;20434;-91
2022/05/11 11:53:46;;;;;;;7.23;3.60;;;31.50;56.20;;;;;;5035251;28;20946;-87
2022/05/11 11:56:24;;;;;;;4.53;3.27;;;31.70;55.20;;;;;;5052019;28;20503;-88
2022/05/11 11:59:24;;;;;;;3.40;3.17;;;32.20;56.00;;;;;;5053745;28;20553;-89
2022/05/11 12:01:55;;;;;;;4.13;3.53;;;32.30;54.50;;;;;;5052149;28;20440;-87
2022/05/11 12:04:29;;;;;;;4.23;3.83;;;32.50;54.20;;;;;;5035281;28;20461;-90
2022/05/11 12:16:05;;;;;;;3.47;3.17;;;32.20;51.20;;;;;;5055304;28;20499;-93
2022/05/11 12:19:07;;;;;;;5.10;3.37;;;32.40;53.80;;;;;;5020130;28;20433;-90
2022/05/11 12:21:36;;;;;;;2.97;2.73;;;32.40;52.70;;;;;;5052089;28;20520;-92
2022/05/11 12:24:05;;;;;;;3.47;3.17;;;32.40;51.90;;;;;;5051633;28;20425;-87
2022/05/11 12:26:37;;;;;;;3.63;3.33;;;31.90;51.90;;;;;;5052515;28;20445;-89
2022/05/11 12:31:54;;;;;;;6.20;3.50;;;31.00;51.90;;;;;;5068903;28;20413;-89
2022/05/11 12:34:22;;;;;;;3.20;3.00;;;31.50;52.70;;;;;;5034899;28;20474;-86
2022/05/11 12:36:51;;;;;;;4.00;3.60;;;31.70;52.50;;;;;;5067678;28;20491;-87
2022/05/11 12:39:38;;;;;;;7.10;3.20;;;31.50;51.70;;;;;;5050169;28;20474;-88
2022/05/11 12:42:05;;;;;;;5.93;3.27;;;31.60;50.60;;;;;;5046641;28;20468;-87
2022/05/11 12:44:36;;;;;;;3.37;2.70;;;31.90;52.00;;;;;;5050643;28;20425;-90
2022/05/11 12:47:05;;;;;;;4.67;3.10;;;31.90;51.40;;;;;;5050549;28;20571;-88
2022/05/11 12:49:32;;;;;;;3.43;3.13;;;32.10;51.70;;;;;;5069408;28;20425;-86
2022/05/11 12:52:08;;;;;;;3.40;3.20;;;32.10;49.80;;;;;;5033985;28;20896;-86
2022/05/11 12:54:34;;;;;;;3.03;2.73;;;32.30;50.90;;;;;;5051266;28;20943;-88
2022/05/11 12:57:05;;;;;;;3.50;3.30;;;32.40;49.00;;;;;;5035108;28;20840;-90
2022/05/11 12:59:33;;;;;;;3.43;3.23;;;32.20;49.40;;;;;;5034141;28;20440;-89
2022/05/11 13:02:37;;;;;;;4.43;3.07;;;32.20;49.60;;;;;;5051982;28;20437;-89
2022/05/11 13:05:09;;;;;;;3.00;2.90;;;31.10;49.60;;;;;;5051590;28;20463;-90
2022/05/11 13:07:47;;;;;;;3.90;3.70;;;30.90;51.20;;;;;;5033188;28;20480;-92
2022/05/11 13:10:33;;;;;;;8.10;3.30;;;30.60;50.00;;;;;;5034453;28;20494;-86
2022/05/11 13:13:00;;;;;;;3.63;3.33;;;30.50;51.40;;;;;;5051495;28;20909;-87
2022/05/11 13:15:36;;;;;;;4.20;3.50;;;30.60;52.20;;;;;;5068178;28;20441;-90
2022/05/11 13:18:05;;;;;;;4.67;3.50;;;30.90;52.30;;;;;;5049919;28;20508;-84
2022/05/11 13:20:36;;;;;;;4.83;3.70;;;31.30;53.00;;;;;;5049708;28;20457;-87
2022/05/11 13:23:07;;;;;;;2.97;2.80;;;31.40;52.20;;;;;;5067528;28;20536;-87
2022/05/11 13:26:01;;;;;;;3.40;3.10;;;31.60;53.30;;;;;;5032897;28;20449;-90
2022/05/11 13:28:38;;;;;;;3.33;3.03;;;32.00;52.20;;;;;;5046112;28;20626;-86
2022/05/11 13:31:33;;;;;;;3.50;3.20;;;31.80;50.30;;;;;;5033115;28;20523;-85
2022/05/11 13:34:01;;;;;;;3.37;3.07;;;31.60;48.30;;;;;;5051222;28;20504;-90
2022/05/11 13:36:43;;;;;;;6.17;3.20;;;31.80;51.30;;;;;;5052374;28;20453;-83
2022/05/11 13:39:09;;;;;;;3.20;2.90;;;31.40;49.40;;;;;;5071316;28;20421;-86
2022/05/11 13:41:57;;;;;;;3.53;3.07;;;31.50;50.60;;;;;;5053039;28;20845;-86
2022/05/11 13:44:36;;;;;;;6.57;2.77;;;31.50;50.30;;;;;;5052486;28;20301;-88
2022/05/11 13:50:26;;;;;;;6.10;3.57;;;31.60;50.10;;;;;;5071068;28;20435;-87
2022/05/11 13:52:56;;;;;;;8.73;3.57;;;31.20;50.00;;;;;;5070721;28;20413;-83
2022/05/11 13:55:37;;;;;;;3.07;2.87;;;30.90;50.10;;;;;;5052196;28;20460;-85